createdAt,value
2022-11-24T00:00:01.845Z,50.66738617515852
2022-11-24T00:15:01.495Z,51.15919694238617
2022-11-24T00:30:02.148Z,51.519759065526074
2022-11-24T00:45:12.935Z,51.571184923697245
2022-11-24T01:00:01.312Z,51.82332262484078
2022-11-24T01:15:01.932Z,52.03314269269015
2022-11-24T01:30:01.613Z,52.24949174740549
2022-11-24T01:45:02.219Z,52.57248867197647
2022-11-24T02:00:01.817Z,52.616358117504575
2022-11-24T02:15:01.447Z,52.722014012256146
2022-11-24T02:30:02.083Z,52.57694751152908
2022-11-24T02:45:01.735Z,52.39162202405699
2022-11-24T03:00:01.351Z,52.46548483752943
2022-11-24T03:15:02.011Z,52.53654504407908
2022-11-24T03:30:01.673Z,52.425169425662816
2022-11-24T03:45:16.747Z,52.06584516502635
2022-11-24T04:00:01.906Z,52.509585310353636
2022-11-24T04:15:01.862Z,52.62580102033826
2022-11-24T04:30:01.518Z,52.626297746871685
2022-11-24T04:45:02.179Z,52.043361099784946
2022-11-24T05:00:01.792Z,52.03266178630941
2022-11-24T05:15:02.487Z,52.073704036415194
2022-11-24T05:30:02.062Z,51.623377572409474
2022-11-24T05:45:01.689Z,51.569652162684996
2022-11-24T06:00:02.284Z,51.92786280637151
2022-11-24T06:15:01.894Z,51.4701590258744
2022-11-24T06:30:01.632Z,51.74183030264886
2022-11-24T06:45:07.421Z,50.33187216408452
2022-11-24T07:00:01.556Z,51.04391961210238
2022-11-24T07:15:02.182Z,53.016108128924316
2022-11-24T07:30:01.897Z,52.9402016410199
2022-11-24T07:45:01.526Z,51.787734574395536
2022-11-24T08:00:02.171Z,50.591443129250095
2022-11-24T08:15:04.305Z,49.30411747303457
2022-11-24T08:30:02.258Z,49.847170014450626
2022-11-24T08:45:13.044Z,50.257813010612246
2022-11-24T09:00:01.834Z,51.68442991078694
2022-11-24T09:15:01.436Z,50.94855604863523
2022-11-24T09:30:02.069Z,50.77948194660152
2022-11-24T09:45:01.693Z,50.87569782280891
2022-11-24T10:00:01.266Z,49.712083472180396
2022-11-24T10:15:01.867Z,48.483676256221635
2022-11-24T10:30:01.508Z,48.8738025320753
2022-11-24T10:45:02.140Z,48.76430269568586
2022-11-24T11:00:01.780Z,48.53983280779778
2022-11-24T11:15:01.369Z,49.12989064089293
2022-11-24T11:45:01.648Z,48.7997750988867
2022-11-24T12:00:01.252Z,48.81235993039779
2022-11-24T12:15:07.330Z,49.35720525152856
2022-11-24T12:30:02.102Z,48.225443960754326
2022-11-24T12:45:01.769Z,46.67436381791332
2022-11-24T13:00:02.423Z,45.15682996217425
2022-11-24T13:15:02.088Z,46.8543800653427
2022-11-24T13:30:01.768Z,48.26633593343011
2022-11-24T13:45:01.429Z,43.04825456761678
2022-11-24T14:00:02.029Z,46.98493053625627
2022-11-24T14:15:01.642Z,48.55693839504918
2022-11-24T14:30:02.330Z,48.91628732989224
2022-11-24T14:45:01.968Z,49.53712500271798
2022-11-24T15:00:01.567Z,50.00007136449055
2022-11-24T15:15:02.222Z,50.03198606536769
2022-11-24T15:30:01.870Z,51.33536357083894
2022-11-24T15:45:01.509Z,51.84856440514491
2022-11-24T16:00:02.166Z,52.11616535258502
2022-11-24T16:15:01.815Z,52.20203846299702
2022-11-24T16:30:01.552Z,52.19094692891571
2022-11-24T16:45:02.216Z,52.14654113150249
2022-11-24T17:00:01.901Z,52.00589458838046
2022-11-24T17:15:31.066Z,51.59939721896415
2022-11-24T17:30:01.858Z,51.644189974442355
2022-11-24T17:45:01.478Z,51.61235130630564
2022-11-24T18:00:02.086Z,51.599910747960784
2022-11-24T18:15:01.748Z,51.64347819071173
2022-11-24T18:30:01.438Z,51.50660918111447
2022-11-24T18:45:02.053Z,51.580094376276286
2022-11-24T19:00:01.685Z,51.3107517276664
2022-11-24T19:15:01.355Z,51.402716962333606
2022-11-24T19:30:01.972Z,51.54802655621583
2022-11-24T19:45:01.628Z,51.359866944125486
2022-11-24T20:00:01.245Z,51.544962989362666
2022-11-24T20:15:02.261Z,51.58595743588648
2022-11-24T20:30:02.022Z,51.763564460158335
2022-11-24T20:45:01.714Z,52.08877094895423
2022-11-24T21:00:02.327Z,51.93637956951638
2022-11-24T21:15:01.969Z,51.919395859438715
2022-11-24T21:30:01.623Z,51.71291605480208
2022-11-24T21:45:02.266Z,51.78870140316728
2022-11-24T22:00:01.919Z,51.543578892627885
2022-11-24T22:15:01.553Z,50.91461865165597
2022-11-24T22:30:02.214Z,50.729655214374446
2022-11-24T22:45:01.815Z,50.98677154685227
2022-11-24T23:00:01.451Z,51.45055369347827
2022-11-24T23:15:02.081Z,51.62781589435279
2022-11-24T23:30:01.720Z,51.5083955947508
2022-11-24T23:45:01.373Z,51.49231684479299
